createdAt,value
2023-10-24T00:01:45.038Z,97564.94
2023-10-24T00:04:12.248Z,97567.38
2023-10-24T00:06:39.044Z,97570.34
2023-10-24T00:09:06.203Z,97566.66
2023-10-24T00:11:33.837Z,97565.34
2023-10-24T00:14:00.729Z,97566.66
2023-10-24T00:16:27.609Z,97559.94
2023-10-24T00:18:54.392Z,97563.38
2023-10-24T00:21:21.198Z,97563.22
2023-10-24T00:23:47.917Z,97564.16
2023-10-24T00:26:14.598Z,97573.50
2023-10-24T00:28:41.332Z,97578.00
2023-10-24T00:31:09.402Z,97586.88
2023-10-24T00:33:36.302Z,97583.91
2023-10-24T00:36:03.379Z,97579.56
2023-10-24T00:38:30.121Z,97573.25
2023-10-24T00:40:56.995Z,97567.97
2023-10-24T00:43:23.705Z,97557.56
2023-10-24T00:45:50.755Z,97546.75
2023-10-24T00:48:17.393Z,97545.31
2023-10-24T00:50:44.195Z,97546.31
2023-10-24T00:53:11.026Z,97527.97
2023-10-24T00:55:40.369Z,97536.22
2023-10-24T00:58:09.842Z,97526.81
2023-10-24T01:00:36.774Z,97522.53
2023-10-24T01:03:05.952Z,97522.97
2023-10-24T01:05:33.214Z,97524.09
2023-10-24T01:08:00.015Z,97511.06
2023-10-24T01:10:26.789Z,97519.13
2023-10-24T01:12:53.441Z,97514.97
2023-10-24T01:15:20.204Z,97528.81
2023-10-24T01:17:51.670Z,97539.72
2023-10-24T01:20:18.661Z,97529.66
2023-10-24T01:22:47.071Z,97531.63
2023-10-24T01:25:15.580Z,97535.28
2023-10-24T01:27:44.317Z,97530.63
2023-10-24T01:30:12.574Z,97515.69
2023-10-24T01:32:39.769Z,97513.13
2023-10-24T01:35:08.573Z,97521.03
2023-10-24T01:37:36.582Z,97516.53
2023-10-24T01:40:06.650Z,97528.06
2023-10-24T01:42:33.346Z,97518.47
2023-10-24T01:45:00.156Z,97524.81
2023-10-24T01:47:26.868Z,97533.59
2023-10-24T01:49:53.607Z,97521.94
2023-10-24T01:52:20.353Z,97529.78
2023-10-24T01:54:47.107Z,97523.81
2023-10-24T01:57:13.925Z,97512.66
2023-10-24T01:59:40.660Z,97520.94
2023-10-24T02:02:07.472Z,97527.53
2023-10-24T02:04:34.466Z,97517.63
2023-10-24T02:07:01.434Z,97504.88
2023-10-24T02:09:31.471Z,97495.13
2023-10-24T02:12:04.384Z,97505.81
2023-10-24T02:14:31.534Z,97496.19
2023-10-24T02:16:58.311Z,97503.44
2023-10-24T02:19:27.417Z,97487.78
2023-10-24T02:21:54.212Z,97481.69
2023-10-24T02:24:20.927Z,97483.19
2023-10-24T02:26:47.525Z,97463.66
2023-10-24T02:29:14.232Z,97454.41
2023-10-24T02:31:40.997Z,97444.88
2023-10-24T02:34:07.842Z,97453.22
2023-10-24T02:36:34.626Z,97454.56
2023-10-24T02:39:01.296Z,97451.63
2023-10-24T02:41:27.994Z,97442.78
2023-10-24T02:43:55.435Z,97445.22
2023-10-24T02:46:22.210Z,97439.69
2023-10-24T02:48:49.033Z,97425.44
2023-10-24T02:51:15.705Z,97433.50
2023-10-24T02:53:42.277Z,97435.97
2023-10-24T02:56:08.952Z,97442.66
2023-10-24T02:58:35.831Z,97457.09
2023-10-24T03:01:06.996Z,97462.56
2023-10-24T03:03:34.257Z,97468.09
2023-10-24T03:06:01.183Z,97472.25
2023-10-24T03:08:28.084Z,97464.28
2023-10-24T03:10:54.891Z,97460.88
2023-10-24T03:13:21.682Z,97441.50
2023-10-24T03:15:48.521Z,97437.47
2023-10-24T03:18:15.565Z,97429.72
2023-10-24T03:20:42.440Z,97430.34
2023-10-24T03:23:10.744Z,97443.19
2023-10-24T03:25:42.617Z,97443.34
2023-10-24T03:28:09.615Z,97443.75
2023-10-24T03:30:36.426Z,97435.78
2023-10-24T03:33:04.259Z,97441.19
2023-10-24T03:35:33.841Z,97436.22
2023-10-24T03:38:00.792Z,97443.91
2023-10-24T03:40:28.210Z,97446.72
2023-10-24T03:42:55.170Z,97446.78
2023-10-24T03:45:22.130Z,97451.34
2023-10-24T03:47:53.946Z,97452.34
2023-10-24T03:50:20.586Z,97462.59
2023-10-24T03:52:49.464Z,97460.59
2023-10-24T03:55:16.262Z,97465.38
2023-10-24T03:57:42.906Z,97458.31
2023-10-24T04:00:09.899Z,97461.03
2023-10-24T04:02:37.647Z,97455.41
2023-10-24T04:05:13.503Z,97456.59
2023-10-24T04:07:40.256Z,97470.59
2023-10-24T04:10:07.490Z,97457.25
2023-10-24T04:12:34.134Z,97482.94
2023-10-24T04:15:01.022Z,97472.97
2023-10-24T04:17:27.950Z,97484.38
2023-10-24T04:19:54.820Z,97471.56
2023-10-24T04:22:22.010Z,97467.16
2023-10-24T04:24:48.735Z,97465.13
2023-10-24T04:27:15.352Z,97472.91
2023-10-24T04:29:43.334Z,97466.72
2023-10-24T04:32:10.181Z,97466.31
2023-10-24T04:34:37.075Z,97464.88
2023-10-24T04:37:03.902Z,97469.50
2023-10-24T04:39:30.625Z,97472.91
2023-10-24T04:41:57.576Z,97461.75
2023-10-24T04:44:24.398Z,97458.47
2023-10-24T04:46:52.253Z,97454.91
2023-10-24T04:49:19.054Z,97451.97
2023-10-24T04:51:45.780Z,97448.69
2023-10-24T04:54:12.458Z,97442.53
2023-10-24T04:56:39.149Z,97440.94
2023-10-24T04:59:05.929Z,97437.25
2023-10-24T05:01:38.930Z,97441.66
2023-10-24T05:04:08.437Z,97434.13
2023-10-24T05:06:35.191Z,97432.63
2023-10-24T05:09:02.234Z,97430.25
2023-10-24T05:11:28.991Z,97429.97
2023-10-24T05:13:55.748Z,97425.28
2023-10-24T05:16:22.684Z,97440.06
2023-10-24T05:18:50.449Z,97435.53
2023-10-24T05:21:17.416Z,97431.81
2023-10-24T05:23:44.055Z,97438.66
2023-10-24T05:26:10.931Z,97440.63
2023-10-24T05:28:37.804Z,97437.34
2023-10-24T05:31:09.239Z,97430.81
2023-10-24T05:33:37.309Z,97431.34
2023-10-24T05:36:04.530Z,97434.22
2023-10-24T05:38:31.508Z,97438.28
2023-10-24T05:40:58.382Z,97442.44
2023-10-24T05:43:25.375Z,97443.31
2023-10-24T05:45:52.124Z,97445.56
2023-10-24T05:48:19.003Z,97442.47
2023-10-24T05:50:45.830Z,97427.47
2023-10-24T05:53:12.776Z,97442.41
2023-10-24T05:55:42.665Z,97443.13
2023-10-24T05:58:09.419Z,97446.69
2023-10-24T06:00:36.287Z,97443.28
2023-10-24T06:03:03.110Z,97448.22
2023-10-24T06:05:29.931Z,97444.81
2023-10-24T06:07:56.864Z,97445.69
2023-10-24T06:10:23.621Z,97434.06
2023-10-24T06:12:50.363Z,97427.47
2023-10-24T06:15:17.063Z,97436.00
2023-10-24T06:17:43.812Z,97431.34
2023-10-24T06:20:10.910Z,97429.00
2023-10-24T06:22:37.684Z,97414.44
2023-10-24T06:25:04.908Z,97415.59
2023-10-24T06:27:31.656Z,97403.56
2023-10-24T06:29:58.689Z,97402.03
2023-10-24T06:32:25.483Z,97395.91
2023-10-24T06:34:52.422Z,97390.53
2023-10-24T06:37:19.126Z,97387.25
2023-10-24T06:39:45.881Z,97394.41
2023-10-24T06:42:12.699Z,97398.44
2023-10-24T06:44:39.538Z,97397.19
2023-10-24T06:47:06.250Z,97401.59
2023-10-24T06:49:33.060Z,97392.38
2023-10-24T06:51:59.781Z,97399.81
2023-10-24T06:54:26.821Z,97396.25
2023-10-24T06:56:53.630Z,97394.72
2023-10-24T06:59:20.303Z,97398.28
2023-10-24T07:01:47.246Z,97402.84
2023-10-24T07:04:14.104Z,97394.88
2023-10-24T07:06:40.847Z,97401.69
2023-10-24T07:09:07.497Z,97397.25
2023-10-24T07:11:34.265Z,97397.56
2023-10-24T07:14:01.295Z,97394.53
2023-10-24T07:16:28.416Z,97386.50
2023-10-24T07:18:55.146Z,97395.81
2023-10-24T07:21:22.097Z,97399.06
2023-10-24T07:23:48.802Z,97384.78
2023-10-24T07:26:15.534Z,97383.13
2023-10-24T07:28:42.275Z,97383.84
2023-10-24T07:31:09.074Z,97379.53
2023-10-24T07:33:35.845Z,97385.78
2023-10-24T07:36:07.122Z,97386.41
2023-10-24T07:38:33.908Z,97383.56
2023-10-24T07:41:00.943Z,97381.88
2023-10-24T07:43:28.485Z,97379.06
2023-10-24T07:45:55.158Z,97374.16
2023-10-24T07:48:21.936Z,97366.88
2023-10-24T07:50:53.323Z,97356.34
2023-10-24T07:53:24.596Z,97351.41
2023-10-24T07:55:52.146Z,97348.03
2023-10-24T07:58:19.999Z,97349.72
2023-10-24T08:00:47.872Z,97345.97
2023-10-24T08:03:15.957Z,97346.69
2023-10-24T08:05:43.191Z,97338.00
2023-10-24T08:08:09.807Z,97331.13
2023-10-24T08:10:36.593Z,97331.38
2023-10-24T08:13:03.340Z,97329.34
2023-10-24T08:15:30.056Z,97336.84
2023-10-24T08:17:56.962Z,97353.03
2023-10-24T08:20:25.798Z,97363.28
2023-10-24T08:22:53.007Z,97357.56
2023-10-24T08:25:19.742Z,97364.66
2023-10-24T08:27:46.865Z,97370.00
2023-10-24T08:30:13.883Z,97388.16
2023-10-24T08:32:41.255Z,97400.06
2023-10-24T08:35:09.091Z,97394.81
2023-10-24T08:37:35.969Z,97380.31
2023-10-24T08:40:04.190Z,97373.31
2023-10-24T08:42:32.291Z,97374.34
2023-10-24T08:45:01.160Z,97365.63
2023-10-24T08:47:29.662Z,97369.41
2023-10-24T08:49:58.039Z,97403.75
2023-10-24T08:52:31.235Z,97410.91
2023-10-24T08:55:02.650Z,97401.19
2023-10-24T08:57:32.190Z,97406.06
2023-10-24T08:59:59.457Z,97397.00
2023-10-24T09:02:26.662Z,97386.22
2023-10-24T09:04:53.763Z,97399.22
2023-10-24T09:07:20.649Z,97398.19
2023-10-24T09:09:47.329Z,97399.50
2023-10-24T09:12:17.026Z,97400.41
2023-10-24T09:14:54.454Z,97395.56
2023-10-24T09:17:24.031Z,97382.19
2023-10-24T09:19:51.667Z,97371.28
2023-10-24T09:22:19.228Z,97369.56
2023-10-24T09:24:50.835Z,97368.88
2023-10-24T09:27:18.964Z,97352.31
2023-10-24T09:29:50.521Z,97362.31
2023-10-24T09:32:18.083Z,97367.63
2023-10-24T09:34:46.638Z,97370.66
2023-10-24T09:37:15.002Z,97369.47
2023-10-24T09:39:55.710Z,97360.56
2023-10-24T09:42:31.074Z,97364.06
2023-10-24T09:45:01.983Z,97357.66
2023-10-24T09:47:29.383Z,97357.47
2023-10-24T09:49:57.492Z,97351.13
2023-10-24T09:52:26.067Z,97347.03
2023-10-24T09:57:20.997Z,97344.28
2023-10-24T09:59:49.131Z,97349.00
2023-10-24T10:02:17.799Z,97353.94
2023-10-24T10:04:45.348Z,97344.84
2023-10-24T10:07:15.349Z,97349.03
2023-10-24T10:09:44.640Z,97346.75
2023-10-24T10:12:14.015Z,97342.69
2023-10-24T10:15:14.133Z,97335.41
2023-10-24T10:18:03.289Z,97344.38
2023-10-24T10:20:39.366Z,97350.25
2023-10-24T10:23:15.143Z,97341.66
2023-10-24T10:26:21.441Z,97343.16
2023-10-24T10:29:01.432Z,97338.16
2023-10-24T10:32:42.268Z,97334.66
2023-10-24T10:34:37.570Z,97341.16
2023-10-24T10:37:05.536Z,97343.72
2023-10-24T10:39:32.228Z,97343.63
2023-10-24T10:41:59.040Z,97346.94
2023-10-24T10:44:43.174Z,97348.25
2023-10-24T10:47:16.653Z,97344.84
2023-10-24T10:49:46.118Z,97341.25
2023-10-24T10:52:30.438Z,97333.09
2023-10-24T10:55:06.656Z,97342.53
2023-10-24T10:57:44.626Z,97340.66
2023-10-24T11:00:28.377Z,97330.34
2023-10-24T11:03:19.001Z,97339.16
2023-10-24T11:05:50.042Z,97335.16
2023-10-24T11:08:20.142Z,97333.09
2023-10-24T11:10:56.652Z,97329.88
2023-10-24T11:13:33.921Z,97334.56
2023-10-24T11:16:06.358Z,97328.72
2023-10-24T11:18:37.805Z,97327.69
2023-10-24T11:21:06.848Z,97311.34
2023-10-24T11:23:36.288Z,97313.31
2023-10-24T11:26:04.923Z,97307.84
2023-10-24T11:28:32.213Z,97313.25
2023-10-24T11:30:59.533Z,97311.94
2023-10-24T11:33:28.038Z,97305.97
2023-10-24T11:35:54.927Z,97307.75
2023-10-24T11:38:21.507Z,97294.72
2023-10-24T11:40:48.307Z,97292.63
2023-10-24T11:43:16.480Z,97288.88
2023-10-24T11:45:43.681Z,97279.13
2023-10-24T11:48:10.615Z,97270.63
2023-10-24T11:50:39.273Z,97266.56
2023-10-24T11:53:06.074Z,97271.66
2023-10-24T11:55:35.450Z,97277.31
2023-10-24T11:58:06.115Z,97273.25
2023-10-24T12:00:32.846Z,97275.31
2023-10-24T12:03:06.333Z,97265.97
2023-10-24T12:05:33.635Z,97275.03
2023-10-24T12:08:02.572Z,97265.31
2023-10-24T12:10:34.108Z,97264.53
2023-10-24T12:13:05.000Z,97270.47
2023-10-24T12:15:32.280Z,97270.28
2023-10-24T12:18:05.453Z,97271.81
2023-10-24T12:20:32.667Z,97277.44
2023-10-24T12:22:59.423Z,97286.50
2023-10-24T12:25:26.108Z,97278.84
2023-10-24T12:27:52.852Z,97281.56
2023-10-24T12:30:20.731Z,97288.56
2023-10-24T12:32:47.522Z,97278.16
2023-10-24T12:35:14.409Z,97277.38
2023-10-24T12:37:41.265Z,97278.25
2023-10-24T12:40:08.718Z,97275.09
2023-10-24T12:42:35.391Z,97273.47
2023-10-24T12:45:02.463Z,97278.84
2023-10-24T12:47:29.466Z,97277.00
2023-10-24T12:49:56.756Z,97270.16
2023-10-24T12:52:23.558Z,97262.13
2023-10-24T12:54:50.582Z,97268.47
2023-10-24T12:57:17.559Z,97277.34
2023-10-24T12:59:44.200Z,97270.69
2023-10-24T13:02:10.973Z,97275.13
2023-10-24T13:04:37.760Z,97280.56
2023-10-24T13:07:07.248Z,97264.81
2023-10-24T13:09:38.516Z,97265.59
2023-10-24T13:12:09.425Z,97272.94
2023-10-24T13:14:36.972Z,97261.66
2023-10-24T13:17:14.644Z,97262.88
2023-10-24T13:19:42.792Z,97254.47
2023-10-24T13:22:09.912Z,97258.88
2023-10-24T13:24:36.809Z,97245.09
2023-10-24T13:27:04.141Z,97250.78
2023-10-24T13:29:30.766Z,97247.69
2023-10-24T13:31:57.811Z,97243.41
2023-10-24T13:35:54.552Z,97246.56
2023-10-24T13:37:11.520Z,97246.75
2023-10-24T13:39:38.257Z,97241.69
2023-10-24T13:42:05.652Z,97240.44
2023-10-24T13:44:32.500Z,97242.72
2023-10-24T13:47:00.261Z,97241.25
2023-10-24T13:49:27.213Z,97237.09
2023-10-24T13:51:53.932Z,97236.16
2023-10-24T13:54:20.749Z,97234.28
2023-10-24T13:56:47.620Z,97226.47
2023-10-24T13:59:14.242Z,97229.19
2023-10-24T14:01:41.159Z,97238.91
2023-10-24T14:04:07.935Z,97231.75
2023-10-24T14:06:34.697Z,97227.31
2023-10-24T14:09:01.383Z,97221.84
2023-10-24T14:11:28.122Z,97224.50
2023-10-24T14:13:54.926Z,97212.16
2023-10-24T14:16:21.747Z,97227.06
2023-10-24T14:18:48.549Z,97220.84
2023-10-24T14:21:15.778Z,97225.84
2023-10-24T14:23:42.778Z,97216.06
2023-10-24T14:26:12.287Z,97217.78
2023-10-24T14:28:40.094Z,97214.31
2023-10-24T14:31:07.027Z,97214.44
2023-10-24T14:33:33.905Z,97215.41
2023-10-24T14:36:00.713Z,97211.66
2023-10-24T14:38:27.492Z,97214.38
2023-10-24T14:40:54.228Z,97212.56
2023-10-24T14:43:23.048Z,97216.00
2023-10-24T14:45:50.916Z,97212.00
2023-10-24T14:48:17.670Z,97216.34
2023-10-24T14:50:45.107Z,97209.19
2023-10-24T14:53:12.404Z,97212.66
2023-10-24T14:55:39.581Z,97210.63
2023-10-24T14:58:07.213Z,97220.44
2023-10-24T15:00:36.866Z,97217.94
2023-10-24T15:03:04.396Z,97216.22
2023-10-24T15:05:31.168Z,97212.66
2023-10-24T15:07:58.659Z,97211.81
2023-10-24T15:10:25.375Z,97211.13
2023-10-24T15:12:52.093Z,97195.31
2023-10-24T15:15:19.014Z,97202.47
2023-10-24T15:17:46.448Z,97198.69
2023-10-24T15:20:13.270Z,97205.00
2023-10-24T15:22:40.013Z,97191.72
2023-10-24T15:25:06.850Z,97184.75
2023-10-24T15:27:33.574Z,97193.72
2023-10-24T15:30:00.488Z,97186.00
2023-10-24T15:32:30.851Z,97176.53
2023-10-24T15:34:57.614Z,97175.75
2023-10-24T15:37:24.416Z,97169.72
2023-10-24T15:39:51.413Z,97170.75
2023-10-24T15:42:21.264Z,97171.75
2023-10-24T15:44:48.134Z,97162.22
2023-10-24T15:47:17.445Z,97165.72
2023-10-24T15:49:44.215Z,97165.91
2023-10-24T15:52:10.938Z,97167.69
2023-10-24T15:54:38.867Z,97164.25
2023-10-24T15:57:07.422Z,97158.31
2023-10-24T15:59:34.725Z,97166.31
2023-10-24T16:02:02.082Z,97170.88
2023-10-24T16:04:28.909Z,97175.47
2023-10-24T16:06:58.174Z,97170.97
2023-10-24T16:09:28.804Z,97176.34
2023-10-24T16:11:55.520Z,97178.22
2023-10-24T16:14:22.935Z,97175.56
2023-10-24T16:16:49.797Z,97174.78
2023-10-24T16:19:16.833Z,97170.53
2023-10-24T16:21:43.793Z,97175.13
2023-10-24T16:24:10.656Z,97177.91
2023-10-24T16:26:37.268Z,97171.19
2023-10-24T16:29:04.675Z,97172.97
2023-10-24T16:31:31.654Z,97170.50
2023-10-24T16:33:59.406Z,97184.78
2023-10-24T16:36:26.196Z,97184.78
2023-10-24T16:38:53.026Z,97184.91
2023-10-24T16:41:19.806Z,97186.78
2023-10-24T16:43:46.611Z,97179.06
2023-10-24T16:46:13.386Z,97183.41
2023-10-24T16:48:40.041Z,97182.38
2023-10-24T16:51:06.703Z,97178.13
2023-10-24T16:53:33.490Z,97177.19
2023-10-24T16:56:00.391Z,97176.44
2023-10-24T16:58:27.885Z,97178.13
2023-10-24T17:00:56.888Z,97176.44
2023-10-24T17:03:23.756Z,97182.63
2023-10-24T17:05:50.626Z,97181.84
2023-10-24T17:08:17.261Z,97178.97
2023-10-24T17:10:44.797Z,97178.44
2023-10-24T17:13:11.734Z,97173.47
2023-10-24T17:15:38.715Z,97167.44
2023-10-24T17:18:05.655Z,97168.38
2023-10-24T17:20:35.297Z,97163.03
2023-10-24T17:23:03.097Z,97167.91
2023-10-24T17:25:30.116Z,97162.00
2023-10-24T17:27:57.196Z,97169.75
2023-10-24T17:30:25.788Z,97169.00
2023-10-24T17:32:54.440Z,97169.91
2023-10-24T17:35:21.519Z,97163.78
2023-10-24T17:37:48.422Z,97158.50
2023-10-24T17:40:15.152Z,97165.66
2023-10-24T17:42:42.433Z,97170.06
2023-10-24T17:45:09.635Z,97164.81
2023-10-24T17:47:36.461Z,97170.06
2023-10-24T17:50:04.100Z,97172.72
2023-10-24T17:52:30.971Z,97167.44
2023-10-24T17:54:57.689Z,97169.31
2023-10-24T17:57:24.438Z,97173.81
2023-10-24T17:59:52.473Z,97165.97
2023-10-24T18:02:19.735Z,97166.13
2023-10-24T18:04:46.510Z,97173.94
2023-10-24T18:07:27.248Z,97163.41
2023-10-24T18:09:54.861Z,97164.25
2023-10-24T18:12:21.622Z,97159.16
2023-10-24T18:14:48.336Z,97152.97
2023-10-24T18:17:15.038Z,97151.34
2023-10-24T18:19:44.115Z,97153.06
2023-10-24T18:22:10.858Z,97158.22
2023-10-24T18:24:37.588Z,97151.00
2023-10-24T18:27:04.452Z,97151.19
2023-10-24T18:29:32.149Z,97154.75
2023-10-24T18:31:58.841Z,97154.91
2023-10-24T18:34:25.473Z,97153.13
2023-10-24T18:36:52.206Z,97153.19
2023-10-24T18:39:18.872Z,97148.72
2023-10-24T18:41:45.606Z,97144.38
2023-10-24T18:44:13.204Z,97154.22
2023-10-24T18:46:46.594Z,97144.69
2023-10-24T18:49:14.116Z,97150.81
2023-10-24T18:51:40.830Z,97143.94
2023-10-24T18:54:07.444Z,97153.84
2023-10-24T18:56:34.783Z,97146.09
2023-10-24T18:59:02.988Z,97150.44
2023-10-24T19:01:29.837Z,97146.69
2023-10-24T19:03:56.618Z,97152.81
2023-10-24T19:06:23.540Z,97147.47
2023-10-24T19:08:50.375Z,97150.91
2023-10-24T19:11:17.416Z,97140.41
2023-10-24T19:13:44.600Z,97153.53
2023-10-24T19:16:12.002Z,97161.09
2023-10-24T19:18:38.845Z,97157.78
2023-10-24T19:21:07.268Z,97162.03
2023-10-24T19:23:34.387Z,97166.34
2023-10-24T19:26:05.537Z,97175.09
2023-10-24T19:28:32.842Z,97168.16
2023-10-24T19:31:00.093Z,97175.09
2023-10-24T19:33:27.164Z,97167.16
2023-10-24T19:35:57.101Z,97174.97
2023-10-24T19:38:27.352Z,97174.13
2023-10-24T19:40:55.916Z,97171.72
2023-10-24T19:43:23.672Z,97176.84
2023-10-24T19:45:50.608Z,97175.81
2023-10-24T19:48:21.588Z,97168.69
2023-10-24T19:50:49.613Z,97161.88
2023-10-24T19:53:17.233Z,97171.78
2023-10-24T19:55:44.907Z,97183.44
2023-10-24T19:58:12.075Z,97179.88
2023-10-24T20:00:39.067Z,97177.28
2023-10-24T20:03:07.333Z,97184.34
2023-10-24T20:05:35.195Z,97185.28
2023-10-24T20:08:05.954Z,97182.56
2023-10-24T20:11:08.365Z,97179.00
2023-10-24T20:13:20.763Z,97186.97
2023-10-24T20:15:48.051Z,97190.53
2023-10-24T20:18:14.973Z,97198.34
2023-10-24T20:20:42.047Z,97193.97
2023-10-24T20:23:09.010Z,97192.22
2023-10-24T20:25:35.890Z,97192.00
2023-10-24T20:28:02.639Z,97202.63
2023-10-24T20:30:30.797Z,97207.66
2023-10-24T20:32:57.823Z,97200.59
2023-10-24T20:35:28.126Z,97203.31
2023-10-24T20:37:56.152Z,97213.38
2023-10-24T20:40:23.186Z,97208.66
2023-10-24T20:42:50.818Z,97215.03
2023-10-24T20:45:18.213Z,97214.31
2023-10-24T20:47:45.057Z,97214.50
2023-10-24T20:50:12.643Z,97206.66
2023-10-24T20:52:39.496Z,97210.38
2023-10-24T20:55:06.495Z,97203.69
2023-10-24T20:57:34.002Z,97206.88
2023-10-24T21:00:00.989Z,97204.03
2023-10-24T21:02:27.818Z,97204.25
2023-10-24T21:04:54.687Z,97205.25
2023-10-24T21:07:21.390Z,97212.38
2023-10-24T21:09:48.160Z,97207.72
2023-10-24T21:12:15.772Z,97210.66
2023-10-24T21:14:42.632Z,97216.88
2023-10-24T21:17:09.453Z,97213.53
2023-10-24T21:19:36.178Z,97211.84
2023-10-24T21:22:03.150Z,97217.66
2023-10-24T21:24:31.736Z,97215.41
2023-10-24T21:26:59.329Z,97211.28
2023-10-24T21:29:28.286Z,97212.56
2023-10-24T21:31:55.749Z,97212.88
2023-10-24T21:34:22.573Z,97212.53
2023-10-24T21:36:49.354Z,97215.59
2023-10-24T21:39:16.284Z,97214.59
2023-10-24T21:41:43.088Z,97207.13
2023-10-24T21:44:09.880Z,97201.03
2023-10-24T21:46:36.551Z,97199.84
2023-10-24T21:49:03.350Z,97208.22
2023-10-24T21:51:30.135Z,97207.56
2023-10-24T21:53:56.791Z,97207.50
2023-10-24T21:56:23.472Z,97194.56
2023-10-24T21:58:50.638Z,97196.47
2023-10-24T22:01:19.451Z,97201.31
2023-10-24T22:03:47.215Z,97192.13
2023-10-24T22:06:14.273Z,97204.19
2023-10-24T22:08:41.328Z,97204.47
2023-10-24T22:11:07.996Z,97213.28
2023-10-24T22:13:34.836Z,97217.59
2023-10-24T22:16:02.148Z,97214.97
2023-10-24T22:18:29.025Z,97210.53
2023-10-24T22:20:55.913Z,97212.75
2023-10-24T22:23:22.741Z,97225.88
2023-10-24T22:25:49.513Z,97233.00
2023-10-24T22:28:16.244Z,97224.06
2023-10-24T22:30:42.959Z,97220.63
2023-10-24T22:33:10.632Z,97223.59
2023-10-24T22:35:37.401Z,97236.03
2023-10-24T22:38:04.605Z,97238.91
2023-10-24T22:40:31.501Z,97237.47
2023-10-24T22:42:58.368Z,97244.41
2023-10-24T22:45:26.172Z,97239.44
2023-10-24T22:47:53.856Z,97239.56
2023-10-24T22:50:22.463Z,97237.22
2023-10-24T22:52:49.344Z,97236.50
2023-10-24T22:55:16.072Z,97242.06
2023-10-24T22:57:43.112Z,97239.63
2023-10-24T23:00:10.793Z,97245.47
2023-10-24T23:02:37.649Z,97245.25
2023-10-24T23:05:04.918Z,97251.44
2023-10-24T23:07:31.740Z,97253.34
2023-10-24T23:09:59.413Z,97253.97
2023-10-24T23:12:26.237Z,97248.16
2023-10-24T23:14:52.923Z,97255.13
2023-10-24T23:17:19.650Z,97249.50
2023-10-24T23:19:46.379Z,97241.31
2023-10-24T23:22:13.002Z,97256.13
2023-10-24T23:24:40.212Z,97253.88
2023-10-24T23:27:07.071Z,97254.56
2023-10-24T23:29:33.736Z,97253.41
2023-10-24T23:32:00.474Z,97255.78
2023-10-24T23:34:27.090Z,97252.47
2023-10-24T23:36:53.908Z,97252.00
2023-10-24T23:39:20.714Z,97247.78
2023-10-24T23:41:47.708Z,97257.00
2023-10-24T23:44:14.372Z,97244.59
2023-10-24T23:46:41.194Z,97242.91
2023-10-24T23:49:07.987Z,97234.97
2023-10-24T23:51:34.735Z,97244.84
2023-10-24T23:54:01.774Z,97242.69
2023-10-24T23:56:29.697Z,97250.78
2023-10-24T23:58:56.899Z,97256.03
